sensor_id;sensor_type;location;lat;lon;timestamp;temperature;humidity
13256;DHT22;37913;48.370;10.930;2023-04-06T00:00:55;-1.80;1.00
13256;DHT22;37913;48.370;10.930;2023-04-06T00:03:23;-1.80;99.90
13256;DHT22;37913;48.370;10.930;2023-04-06T00:05:50;-1.90;1.00
13256;DHT22;37913;48.370;10.930;2023-04-06T00:08:17;-1.70;1.00
13256;DHT22;37913;48.370;10.930;2023-04-06T00:10:45;-1.70;99.90
13256;DHT22;37913;48.370;10.930;2023-04-06T00:13:12;-1.80;23.40
13256;DHT22;37913;48.370;10.930;2023-04-06T00:15:39;-1.90;1.00
13256;DHT22;37913;48.370;10.930;2023-04-06T00:18:06;-1.80;99.90
13256;DHT22;37913;48.370;10.930;2023-04-06T00:20:36;-1.70;1.00
13256;DHT22;37913;48.370;10.930;2023-04-06T00:23:03;-1.80;99.90
13256;DHT22;37913;48.370;10.930;2023-04-06T00:25:30;-1.50;1.00
13256;DHT22;37913;48.370;10.930;2023-04-06T00:27:59;-1.40;1.00
13256;DHT22;37913;48.370;10.930;2023-04-06T00:30:26;-1.30;1.00
13256;DHT22;37913;48.370;10.930;2023-04-06T00:32:53;-1.30;1.00
13256;DHT22;37913;48.370;10.930;2023-04-06T00:35:22;-1.20;1.00
13256;DHT22;37913;48.370;10.930;2023-04-06T00:37:49;-1.40;1.00
13256;DHT22;37913;48.370;10.930;2023-04-06T00:40:16;-1.70;1.00
13256;DHT22;37913;48.370;10.930;2023-04-06T00:42:43;-1.80;99.90
13256;DHT22;37913;48.370;10.930;2023-04-06T00:45:12;-2.00;99.90
13256;DHT22;37913;48.370;10.930;2023-04-06T00:47:39;-2.20;99.90
13256;DHT22;37913;48.370;10.930;2023-04-06T00:50:07;-2.30;1.00
13256;DHT22;37913;48.370;10.930;2023-04-06T00:52:34;-2.50;1.00
13256;DHT22;37913;48.370;10.930;2023-04-06T00:55:01;-2.50;99.90
13256;DHT22;37913;48.370;10.930;2023-04-06T00:57:28;-2.40;1.00
13256;DHT22;37913;48.370;10.930;2023-04-06T00:59:56;-2.50;1.00
13256;DHT22;37913;48.370;10.930;2023-04-06T01:02:25;-2.50;99.90
13256;DHT22;37913;48.370;10.930;2023-04-06T01:04:52;-2.50;1.00
13256;DHT22;37913;48.370;10.930;2023-04-06T01:07:20;-1.80;1.00
13256;DHT22;37913;48.370;10.930;2023-04-06T01:09:47;-1.50;99.90
13256;DHT22;37913;48.370;10.930;2023-04-06T01:12:14;-1.50;1.00
13256;DHT22;37913;48.370;10.930;2023-04-06T01:14:41;-1.60;1.00
13256;DHT22;37913;48.370;10.930;2023-04-06T01:17:08;-1.60;1.00
13256;DHT22;37913;48.370;10.930;2023-04-06T01:19:37;-1.70;1.00
13256;DHT22;37913;48.370;10.930;2023-04-06T01:22:06;-1.70;1.00
13256;DHT22;37913;48.370;10.930;2023-04-06T01:24:34;-1.70;1.00
13256;DHT22;37913;48.370;10.930;2023-04-06T01:27:01;-1.80;47.60
13256;DHT22;37913;48.370;10.930;2023-04-06T01:29:28;-2.00;1.00
13256;DHT22;37913;48.370;10.930;2023-04-06T01:32:02;-1.70;99.90
13256;DHT22;37913;48.370;10.930;2023-04-06T01:34:29;-1.80;1.00
13256;DHT22;37913;48.370;10.930;2023-04-06T01:36:56;-2.10;99.90
13256;DHT22;37913;48.370;10.930;2023-04-06T01:39:23;-2.20;1.00
13256;DHT22;37913;48.370;10.930;2023-04-06T01:41:52;-2.40;99.90
13256;DHT22;37913;48.370;10.930;2023-04-06T01:44:19;-2.40;1.00
13256;DHT22;37913;48.370;10.930;2023-04-06T01:46:47;-2.40;1.00
13256;DHT22;37913;48.370;10.930;2023-04-06T01:49:14;-2.20;1.00
13256;DHT22;37913;48.370;10.930;2023-04-06T01:51:42;-1.90;99.90
13256;DHT22;37913;48.370;10.930;2023-04-06T01:54:09;-1.90;1.00
13256;DHT22;37913;48.370;10.930;2023-04-06T01:56:35;-1.80;1.00
13256;DHT22;37913;48.370;10.930;2023-04-06T01:59:04;-1.80;1.00
13256;DHT22;37913;48.370;10.930;2023-04-06T02:01:31;-2.00;99.90
13256;DHT22;37913;48.370;10.930;2023-04-06T02:03:58;-2.10;1.00
13256;DHT22;37913;48.370;10.930;2023-04-06T02:06:25;-2.30;99.90
13256;DHT22;37913;48.370;10.930;2023-04-06T02:08:52;-1.00;99.90
13256;DHT22;37913;48.370;10.930;2023-04-06T02:11:19;-1.90;1.00
13256;DHT22;37913;48.370;10.930;2023-04-06T02:13:46;-1.90;1.00
13256;DHT22;37913;48.370;10.930;2023-04-06T02:16:14;-1.90;99.90
13256;DHT22;37913;48.370;10.930;2023-04-06T02:18:42;-2.20;1.00
13256;DHT22;37913;48.370;10.930;2023-04-06T02:21:09;-2.40;99.90
13256;DHT22;37913;48.370;10.930;2023-04-06T02:23:36;-2.30;1.00
13256;DHT22;37913;48.370;10.930;2023-04-06T02:26:03;-2.30;1.00
13256;DHT22;37913;48.370;10.930;2023-04-06T02:28:30;-2.20;1.00
13256;DHT22;37913;48.370;10.930;2023-04-06T02:30:57;-2.10;1.00
13256;DHT22;37913;48.370;10.930;2023-04-06T02:33:26;-2.30;1.00
13256;DHT22;37913;48.370;10.930;2023-04-06T02:35:53;-2.20;1.00
13256;DHT22;37913;48.370;10.930;2023-04-06T02:38:20;-2.30;1.00
13256;DHT22;37913;48.370;10.930;2023-04-06T02:40:47;-2.30;1.00
13256;DHT22;37913;48.370;10.930;2023-04-06T02:43:14;-2.30;1.00
13256;DHT22;37913;48.370;10.930;2023-04-06T02:45:42;-2.20;1.00
13256;DHT22;37913;48.370;10.930;2023-04-06T02:48:09;-2.20;99.90
13256;DHT22;37913;48.370;10.930;2023-04-06T02:50:37;-2.20;99.90
13256;DHT22;37913;48.370;10.930;2023-04-06T02:53:05;-1.50;99.90
13256;DHT22;37913;48.370;10.930;2023-04-06T02:55:32;-2.30;99.90
13256;DHT22;37913;48.370;10.930;2023-04-06T02:57:59;-2.40;99.90
13256;DHT22;37913;48.370;10.930;2023-04-06T03:00:26;-2.50;1.00
13256;DHT22;37913;48.370;10.930;2023-04-06T03:02:54;-2.40;1.00
13256;DHT22;37913;48.370;10.930;2023-04-06T03:05:21;-2.50;1.00
13256;DHT22;37913;48.370;10.930;2023-04-06T03:07:49;-2.60;1.00
13256;DHT22;37913;48.370;10.930;2023-04-06T03:10:16;-2.40;1.00
13256;DHT22;37913;48.370;10.930;2023-04-06T03:12:44;-2.20;44.00
13256;DHT22;37913;48.370;10.930;2023-04-06T03:15:11;-2.10;1.00
13256;DHT22;37913;48.370;10.930;2023-04-06T03:17:38;-2.30;1.00
13256;DHT22;37913;48.370;10.930;2023-04-06T03:20:06;-2.40;1.00
13256;DHT22;37913;48.370;10.930;2023-04-06T03:22:33;-2.50;1.00
13256;DHT22;37913;48.370;10.930;2023-04-06T03:25:02;-2.40;99.90
13256;DHT22;37913;48.370;10.930;2023-04-06T03:27:29;-2.50;99.90
13256;DHT22;37913;48.370;10.930;2023-04-06T03:29:57;-2.50;1.00
13256;DHT22;37913;48.370;10.930;2023-04-06T03:32:24;-2.40;1.00
13256;DHT22;37913;48.370;10.930;2023-04-06T03:34:51;-2.30;99.90
13256;DHT22;37913;48.370;10.930;2023-04-06T03:37:18;-2.30;99.90
13256;DHT22;37913;48.370;10.930;2023-04-06T03:39:45;-2.30;99.90
13256;DHT22;37913;48.370;10.930;2023-04-06T03:42:14;-2.20;1.00
13256;DHT22;37913;48.370;10.930;2023-04-06T03:44:41;-2.40;23.30
13256;DHT22;37913;48.370;10.930;2023-04-06T03:47:08;-2.50;99.90
13256;DHT22;37913;48.370;10.930;2023-04-06T03:49:35;-2.40;99.90
13256;DHT22;37913;48.370;10.930;2023-04-06T03:52:03;-2.50;99.90
13256;DHT22;37913;48.370;10.930;2023-04-06T03:54:30;-2.50;99.90
13256;DHT22;37913;48.370;10.930;2023-04-06T03:56:57;-2.50;1.00
13256;DHT22;37913;48.370;10.930;2023-04-06T03:59:26;-2.40;1.00
13256;DHT22;37913;48.370;10.930;2023-04-06T04:01:52;-2.40;1.00
13256;DHT22;37913;48.370;10.930;2023-04-06T04:04:20;-2.50;1.00
13256;DHT22;37913;48.370;10.930;2023-04-06T04:06:47;-2.70;1.00
13256;DHT22;37913;48.370;10.930;2023-04-06T04:09:14;-2.50;1.00
13256;DHT22;37913;48.370;10.930;2023-04-06T04:11:41;-2.30;1.00
13256;DHT22;37913;48.370;10.930;2023-04-06T04:14:08;-2.50;1.00
13256;DHT22;37913;48.370;10.930;2023-04-06T04:16:36;-2.70;1.00
13256;DHT22;37913;48.370;10.930;2023-04-06T04:19:04;-2.80;1.00
13256;DHT22;37913;48.370;10.930;2023-04-06T04:21:31;-2.90;1.00
13256;DHT22;37913;48.370;10.930;2023-04-06T04:23:59;-3.00;1.00
13256;DHT22;37913;48.370;10.930;2023-04-06T04:26:25;-3.10;1.00
13256;DHT22;37913;48.370;10.930;2023-04-06T04:28:52;-3.00;1.00
13256;DHT22;37913;48.370;10.930;2023-04-06T04:31:21;-3.00;1.00
13256;DHT22;37913;48.370;10.930;2023-04-06T04:33:49;-3.00;1.00
13256;DHT22;37913;48.370;10.930;2023-04-06T04:36:16;-2.80;1.00
13256;DHT22;37913;48.370;10.930;2023-04-06T04:38:43;-2.70;1.00
13256;DHT22;37913;48.370;10.930;2023-04-06T04:41:10;-2.80;1.00
13256;DHT22;37913;48.370;10.930;2023-04-06T04:43:37;-2.90;1.00
13256;DHT22;37913;48.370;10.930;2023-04-06T04:46:05;-2.90;1.00
13256;DHT22;37913;48.370;10.930;2023-04-06T04:48:32;-2.70;1.00
13256;DHT22;37913;48.370;10.930;2023-04-06T04:51:00;-2.40;1.00
13256;DHT22;37913;48.370;10.930;2023-04-06T04:53:27;-2.60;1.00
13256;DHT22;37913;48.370;10.930;2023-04-06T04:55:54;-2.50;1.00
13256;DHT22;37913;48.370;10.930;2023-04-06T04:58:21;-2.40;1.00
13256;DHT22;37913;48.370;10.930;2023-04-06T05:00:48;-2.20;1.00
13256;DHT22;37913;48.370;10.930;2023-04-06T05:03:26;-2.10;99.90
13256;DHT22;37913;48.370;10.930;2023-04-06T05:05:53;-2.10;1.00
13256;DHT22;37913;48.370;10.930;2023-04-06T05:08:27;-2.10;1.00
13256;DHT22;37913;48.370;10.930;2023-04-06T05:10:54;-1.90;1.00
13256;DHT22;37913;48.370;10.930;2023-04-06T05:13:21;-1.90;1.00
13256;DHT22;37913;48.370;10.930;2023-04-06T05:15:48;-1.70;1.00
13256;DHT22;37913;48.370;10.930;2023-04-06T05:18:15;-1.70;96.70
13256;DHT22;37913;48.370;10.930;2023-04-06T05:20:42;-1.60;1.00
13256;DHT22;37913;48.370;10.930;2023-04-06T05:23:10;-1.50;99.90
13256;DHT22;37913;48.370;10.930;2023-04-06T05:25:39;-1.30;1.00
13256;DHT22;37913;48.370;10.930;2023-04-06T05:28:06;-1.20;1.00
13256;DHT22;37913;48.370;10.930;2023-04-06T05:30:33;-1.10;45.00
13256;DHT22;37913;48.370;10.930;2023-04-06T05:33:01;-0.90;1.00
13256;DHT22;37913;48.370;10.930;2023-04-06T05:35:28;-0.70;70.20
13256;DHT22;37913;48.370;10.930;2023-04-06T05:37:55;-0.50;1.00
13256;DHT22;37913;48.370;10.930;2023-04-06T05:40:22;-0.40;1.00
13256;DHT22;37913;48.370;10.930;2023-04-06T05:42:51;-0.10;99.90
13256;DHT22;37913;48.370;10.930;2023-04-06T05:45:20;0.10;92.20
13256;DHT22;37913;48.370;10.930;2023-04-06T05:47:47;0.10;1.00
13256;DHT22;37913;48.370;10.930;2023-04-06T05:50:15;0.30;1.00
13256;DHT22;37913;48.370;10.930;2023-04-06T05:52:42;0.70;99.90
13256;DHT22;37913;48.370;10.930;2023-04-06T05:55:12;0.70;95.30
13256;DHT22;37913;48.370;10.930;2023-04-06T05:57:39;0.80;92.30
13256;DHT22;37913;48.370;10.930;2023-04-06T06:00:09;1.30;1.00
13256;DHT22;37913;48.370;10.930;2023-04-06T06:02:37;1.60;1.00
13256;DHT22;37913;48.370;10.930;2023-04-06T06:05:05;2.40;1.00
13256;DHT22;37913;48.370;10.930;2023-04-06T06:07:32;2.00;99.90
13256;DHT22;37913;48.370;10.930;2023-04-06T06:09:59;1.80;1.00
13256;DHT22;37913;48.370;10.930;2023-04-06T06:12:26;1.80;99.90
13256;DHT22;37913;48.370;10.930;2023-04-06T06:14:54;2.50;1.00
13256;DHT22;37913;48.370;10.930;2023-04-06T06:17:22;2.30;1.00
13256;DHT22;37913;48.370;10.930;2023-04-06T06:19:49;2.50;99.90
13256;DHT22;37913;48.370;10.930;2023-04-06T06:22:16;2.50;99.90
13256;DHT22;37913;48.370;10.930;2023-04-06T06:24:43;2.80;99.90
13256;DHT22;37913;48.370;10.930;2023-04-06T06:27:10;2.90;99.90
13256;DHT22;37913;48.370;10.930;2023-04-06T06:29:37;3.20;99.90
13256;DHT22;37913;48.370;10.930;2023-04-06T06:32:05;4.00;99.90
13256;DHT22;37913;48.370;10.930;2023-04-06T06:34:33;4.10;99.90
13256;DHT22;37913;48.370;10.930;2023-04-06T06:37:00;5.00;99.90
13256;DHT22;37913;48.370;10.930;2023-04-06T06:39:28;5.40;99.90
13256;DHT22;37913;48.370;10.930;2023-04-06T06:41:57;4.80;99.90
13256;DHT22;37913;48.370;10.930;2023-04-06T06:44:26;4.30;99.90
13256;DHT22;37913;48.370;10.930;2023-04-06T06:46:53;4.50;99.90
13256;DHT22;37913;48.370;10.930;2023-04-06T06:49:21;5.30;99.90
13256;DHT22;37913;48.370;10.930;2023-04-06T06:51:50;6.30;99.90
13256;DHT22;37913;48.370;10.930;2023-04-06T06:54:17;6.40;99.90
13256;DHT22;37913;48.370;10.930;2023-04-06T06:56:45;7.70;99.90
13256;DHT22;37913;48.370;10.930;2023-04-06T06:59:12;7.70;99.20
13256;DHT22;37913;48.370;10.930;2023-04-06T07:01:40;8.00;96.80
13256;DHT22;37913;48.370;10.930;2023-04-06T07:04:07;6.80;97.80
13256;DHT22;37913;48.370;10.930;2023-04-06T07:06:35;7.10;99.00
13256;DHT22;37913;48.370;10.930;2023-04-06T07:09:05;8.40;96.80
13256;DHT22;37913;48.370;10.930;2023-04-06T07:11:32;9.10;96.10
13256;DHT22;37913;48.370;10.930;2023-04-06T07:13:59;10.60;93.10
13256;DHT22;37913;48.370;10.930;2023-04-06T07:16:27;11.10;89.70
13256;DHT22;37913;48.370;10.930;2023-04-06T07:18:54;10.40;90.30
13256;DHT22;37913;48.370;10.930;2023-04-06T07:21:22;10.80;88.20
13256;DHT22;37913;48.370;10.930;2023-04-06T07:23:50;11.10;87.30
13256;DHT22;37913;48.370;10.930;2023-04-06T07:26:20;10.40;84.90
13256;DHT22;37913;48.370;10.930;2023-04-06T07:28:48;8.60;89.70
13256;DHT22;37913;48.370;10.930;2023-04-06T07:31:16;6.80;93.10
13256;DHT22;37913;48.370;10.930;2023-04-06T07:33:45;6.60;93.60
13256;DHT22;37913;48.370;10.930;2023-04-06T07:36:12;7.50;93.20
13256;DHT22;37913;48.370;10.930;2023-04-06T07:38:40;7.80;93.30
13256;DHT22;37913;48.370;10.930;2023-04-06T07:41:07;8.50;92.10
13256;DHT22;37913;48.370;10.930;2023-04-06T07:43:35;8.70;91.30
13256;DHT22;37913;48.370;10.930;2023-04-06T07:46:02;10.40;90.50
13256;DHT22;37913;48.370;10.930;2023-04-06T07:48:29;12.30;87.70
13256;DHT22;37913;48.370;10.930;2023-04-06T07:51:01;13.40;76.90
13256;DHT22;37913;48.370;10.930;2023-04-06T07:53:28;11.40;80.70
13256;DHT22;37913;48.370;10.930;2023-04-06T07:55:56;13.80;77.70
13256;DHT22;37913;48.370;10.930;2023-04-06T07:58:23;14.70;71.70
13256;DHT22;37913;48.370;10.930;2023-04-06T08:00:51;14.00;72.60
13256;DHT22;37913;48.370;10.930;2023-04-06T08:03:20;13.60;72.80
13256;DHT22;37913;48.370;10.930;2023-04-06T08:05:53;13.40;67.80
13256;DHT22;37913;48.370;10.930;2023-04-06T08:08:21;12.50;73.50
13256;DHT22;37913;48.370;10.930;2023-04-06T08:10:48;14.50;69.40
13256;DHT22;37913;48.370;10.930;2023-04-06T08:13:15;16.30;66.90
13256;DHT22;37913;48.370;10.930;2023-04-06T08:15:42;18.90;62.10
13256;DHT22;37913;48.370;10.930;2023-04-06T08:18:11;19.50;57.50
13256;DHT22;37913;48.370;10.930;2023-04-06T08:20:38;20.50;55.40
13256;DHT22;37913;48.370;10.930;2023-04-06T08:23:05;21.50;52.20
13256;DHT22;37913;48.370;10.930;2023-04-06T08:25:35;21.70;49.40
13256;DHT22;37913;48.370;10.930;2023-04-06T08:28:02;19.60;50.80
13256;DHT22;37913;48.370;10.930;2023-04-06T08:30:30;21.20;51.00
13256;DHT22;37913;48.370;10.930;2023-04-06T08:32:57;22.30;48.30
13256;DHT22;37913;48.370;10.930;2023-04-06T08:35:26;19.90;48.40
13256;DHT22;37913;48.370;10.930;2023-04-06T08:37:53;19.80;47.60
13256;DHT22;37913;48.370;10.930;2023-04-06T08:40:20;20.80;48.30
13256;DHT22;37913;48.370;10.930;2023-04-06T08:42:50;22.60;46.50
13256;DHT22;37913;48.370;10.930;2023-04-06T08:45:19;22.90;44.50
13256;DHT22;37913;48.370;10.930;2023-04-06T08:47:48;24.30;44.10
13256;DHT22;37913;48.370;10.930;2023-04-06T08:50:17;22.80;43.40
13256;DHT22;37913;48.370;10.930;2023-04-06T08:52:48;24.80;42.80
13256;DHT22;37913;48.370;10.930;2023-04-06T08:55:16;25.40;39.00
13256;DHT22;37913;48.370;10.930;2023-04-06T08:57:43;25.30;38.90
13256;DHT22;37913;48.370;10.930;2023-04-06T09:00:12;24.70;39.00
13256;DHT22;37913;48.370;10.930;2023-04-06T09:02:39;26.50;38.10
13256;DHT22;37913;48.370;10.930;2023-04-06T09:05:09;28.40;36.70
13256;DHT22;37913;48.370;10.930;2023-04-06T09:07:36;26.90;35.50
13256;DHT22;37913;48.370;10.930;2023-04-06T09:10:06;24.50;35.10
13256;DHT22;37913;48.370;10.930;2023-04-06T09:12:34;20.00;39.10
13256;DHT22;37913;48.370;10.930;2023-04-06T09:15:02;22.00;38.30
13256;DHT22;37913;48.370;10.930;2023-04-06T09:17:30;23.60;38.30
13256;DHT22;37913;48.370;10.930;2023-04-06T09:19:59;26.20;38.40
13256;DHT22;37913;48.370;10.930;2023-04-06T09:22:35;28.10;36.20
13256;DHT22;37913;48.370;10.930;2023-04-06T09:25:05;30.50;34.70
13256;DHT22;37913;48.370;10.930;2023-04-06T09:27:35;30.70;33.00
13256;DHT22;37913;48.370;10.930;2023-04-06T09:30:07;31.10;32.40
13256;DHT22;37913;48.370;10.930;2023-04-06T09:32:46;31.80;30.40
13256;DHT22;37913;48.370;10.930;2023-04-06T09:35:13;32.80;30.60
13256;DHT22;37913;48.370;10.930;2023-04-06T09:37:41;33.00;28.50
13256;DHT22;37913;48.370;10.930;2023-04-06T09:40:10;30.10;28.40
13256;DHT22;37913;48.370;10.930;2023-04-06T09:42:41;29.20;29.50
13256;DHT22;37913;48.370;10.930;2023-04-06T09:45:09;27.80;30.10
13256;DHT22;37913;48.370;10.930;2023-04-06T09:47:37;28.60;30.40
13256;DHT22;37913;48.370;10.930;2023-04-06T09:50:07;30.40;30.00
13256;DHT22;37913;48.370;10.930;2023-04-06T09:52:40;31.00;28.50
13256;DHT22;37913;48.370;10.930;2023-04-06T09:55:09;29.20;28.30
13256;DHT22;37913;48.370;10.930;2023-04-06T09:57:44;27.00;28.90
13256;DHT22;37913;48.370;10.930;2023-04-06T10:00:14;28.30;29.00
13256;DHT22;37913;48.370;10.930;2023-04-06T10:02:48;30.70;27.70
13256;DHT22;37913;48.370;10.930;2023-04-06T10:05:20;32.00;27.60
13256;DHT22;37913;48.370;10.930;2023-04-06T10:07:51;25.70;29.50
13256;DHT22;37913;48.370;10.930;2023-04-06T10:10:22;30.30;28.20
13256;DHT22;37913;48.370;10.930;2023-04-06T10:12:50;31.80;27.30
13256;DHT22;37913;48.370;10.930;2023-04-06T10:15:17;34.20;26.70
13256;DHT22;37913;48.370;10.930;2023-04-06T10:17:45;33.60;26.30
13256;DHT22;37913;48.370;10.930;2023-04-06T10:20:16;33.60;26.10
13256;DHT22;37913;48.370;10.930;2023-04-06T10:22:53;33.80;26.60
13256;DHT22;37913;48.370;10.930;2023-04-06T10:25:30;33.70;26.90
13256;DHT22;37913;48.370;10.930;2023-04-06T10:28:01;33.10;26.30
13256;DHT22;37913;48.370;10.930;2023-04-06T10:30:28;30.40;27.10
13256;DHT22;37913;48.370;10.930;2023-04-06T10:32:56;31.40;26.50
13256;DHT22;37913;48.370;10.930;2023-04-06T10:35:23;30.80;28.00
13256;DHT22;37913;48.370;10.930;2023-04-06T10:37:52;32.10;26.80
13256;DHT22;37913;48.370;10.930;2023-04-06T10:40:22;34.50;26.80
13256;DHT22;37913;48.370;10.930;2023-04-06T10:42:51;36.10;26.30
13256;DHT22;37913;48.370;10.930;2023-04-06T10:45:23;37.60;25.60
13256;DHT22;37913;48.370;10.930;2023-04-06T10:47:52;37.10;24.90
13256;DHT22;37913;48.370;10.930;2023-04-06T10:50:20;33.10;25.90
13256;DHT22;37913;48.370;10.930;2023-04-06T10:52:47;34.70;25.70
13256;DHT22;37913;48.370;10.930;2023-04-06T10:55:26;34.90;25.90
13256;DHT22;37913;48.370;10.930;2023-04-06T10:57:55;36.60;24.40
13256;DHT22;37913;48.370;10.930;2023-04-06T11:00:22;32.50;26.00
13256;DHT22;37913;48.370;10.930;2023-04-06T11:02:49;36.50;25.20
13256;DHT22;37913;48.370;10.930;2023-04-06T11:05:16;38.70;23.20
13256;DHT22;37913;48.370;10.930;2023-04-06T11:07:44;41.20;23.00
13256;DHT22;37913;48.370;10.930;2023-04-06T11:10:11;43.30;21.80
13256;DHT22;37913;48.370;10.930;2023-04-06T11:12:38;43.10;20.40
13256;DHT22;37913;48.370;10.930;2023-04-06T11:15:10;42.50;20.80
13256;DHT22;37913;48.370;10.930;2023-04-06T11:17:37;34.80;21.80
13256;DHT22;37913;48.370;10.930;2023-04-06T11:20:10;36.80;23.70
13256;DHT22;37913;48.370;10.930;2023-04-06T11:22:55;39.30;21.30
13256;DHT22;37913;48.370;10.930;2023-04-06T11:25:25;37.50;21.30
13256;DHT22;37913;48.370;10.930;2023-04-06T11:27:53;33.70;22.70
13256;DHT22;37913;48.370;10.930;2023-04-06T11:30:22;31.00;24.20
13256;DHT22;37913;48.370;10.930;2023-04-06T11:32:49;29.80;24.50
13256;DHT22;37913;48.370;10.930;2023-04-06T11:35:24;31.70;24.80
13256;DHT22;37913;48.370;10.930;2023-04-06T11:37:51;36.30;22.90
13256;DHT22;37913;48.370;10.930;2023-04-06T11:40:21;34.30;22.60
13256;DHT22;37913;48.370;10.930;2023-04-06T11:42:52;32.60;23.70
13256;DHT22;37913;48.370;10.930;2023-04-06T11:45:21;31.50;23.80
13256;DHT22;37913;48.370;10.930;2023-04-06T11:47:55;26.70;25.90
13256;DHT22;37913;48.370;10.930;2023-04-06T11:50:23;29.50;24.70
13256;DHT22;37913;48.370;10.930;2023-04-06T11:52:58;30.10;24.70
13256;DHT22;37913;48.370;10.930;2023-04-06T11:55:26;27.80;26.00
13256;DHT22;37913;48.370;10.930;2023-04-06T11:57:54;26.60;26.10
13256;DHT22;37913;48.370;10.930;2023-04-06T12:00:23;25.30;27.40
13256;DHT22;37913;48.370;10.930;2023-04-06T12:02:50;31.00;24.10
13256;DHT22;37913;48.370;10.930;2023-04-06T12:05:17;33.80;22.50
13256;DHT22;37913;48.370;10.930;2023-04-06T12:07:44;37.60;22.00
13256;DHT22;37913;48.370;10.930;2023-04-06T12:10:11;38.70;20.50
13256;DHT22;37913;48.370;10.930;2023-04-06T12:12:38;41.30;19.70
13256;DHT22;37913;48.370;10.930;2023-04-06T12:15:07;43.00;18.30
13256;DHT22;37913;48.370;10.930;2023-04-06T12:17:37;41.60;18.80
13256;DHT22;37913;48.370;10.930;2023-04-06T12:20:05;41.10;18.30
13256;DHT22;37913;48.370;10.930;2023-04-06T12:22:33;41.30;18.50
13256;DHT22;37913;48.370;10.930;2023-04-06T12:25:03;36.90;18.50
13256;DHT22;37913;48.370;10.930;2023-04-06T12:27:32;35.20;19.90
13256;DHT22;37913;48.370;10.930;2023-04-06T12:29:59;37.60;19.50
13256;DHT22;37913;48.370;10.930;2023-04-06T12:32:27;39.60;19.10
13256;DHT22;37913;48.370;10.930;2023-04-06T12:34:56;35.40;19.10
13256;DHT22;37913;48.370;10.930;2023-04-06T12:37:23;33.80;19.30
13256;DHT22;37913;48.370;10.930;2023-04-06T12:39:50;33.70;19.30
13256;DHT22;37913;48.370;10.930;2023-04-06T12:42:17;35.90;18.90
13256;DHT22;37913;48.370;10.930;2023-04-06T12:44:45;36.10;19.10
13256;DHT22;37913;48.370;10.930;2023-04-06T12:47:12;37.90;19.10
13256;DHT22;37913;48.370;10.930;2023-04-06T12:49:40;40.20;19.70
13256;DHT22;37913;48.370;10.930;2023-04-06T12:52:08;41.60;18.10
13256;DHT22;37913;48.370;10.930;2023-04-06T12:54:35;42.90;17.40
13256;DHT22;37913;48.370;10.930;2023-04-06T12:57:02;42.70;17.60
13256;DHT22;37913;48.370;10.930;2023-04-06T12:59:30;41.30;16.90
13256;DHT22;37913;48.370;10.930;2023-04-06T13:02:00;41.50;16.60
13256;DHT22;37913;48.370;10.930;2023-04-06T13:04:27;42.10;16.20
13256;DHT22;37913;48.370;10.930;2023-04-06T13:06:55;43.20;15.90
13256;DHT22;37913;48.370;10.930;2023-04-06T13:09:23;34.80;18.20
13256;DHT22;37913;48.370;10.930;2023-04-06T13:11:50;34.60;18.80
13256;DHT22;37913;48.370;10.930;2023-04-06T13:14:17;35.30;19.00
13256;DHT22;37913;48.370;10.930;2023-04-06T13:16:45;33.70;19.00
13256;DHT22;37913;48.370;10.930;2023-04-06T13:19:12;33.30;19.80
13256;DHT22;37913;48.370;10.930;2023-04-06T13:21:39;30.80;21.60
13256;DHT22;37913;48.370;10.930;2023-04-06T13:24:06;31.60;21.00
13256;DHT22;37913;48.370;10.930;2023-04-06T13:26:35;35.10;19.80
13256;DHT22;37913;48.370;10.930;2023-04-06T13:29:02;32.60;20.30
13256;DHT22;37913;48.370;10.930;2023-04-06T13:31:30;32.70;20.50
13256;DHT22;37913;48.370;10.930;2023-04-06T13:33:59;33.30;21.00
13256;DHT22;37913;48.370;10.930;2023-04-06T13:36:26;35.30;20.50
13256;DHT22;37913;48.370;10.930;2023-04-06T13:38:53;38.00;19.70
13256;DHT22;37913;48.370;10.930;2023-04-06T13:41:21;39.00;18.90
13256;DHT22;37913;48.370;10.930;2023-04-06T13:43:53;39.30;18.30
13256;DHT22;37913;48.370;10.930;2023-04-06T13:46:20;39.70;17.20
13256;DHT22;37913;48.370;10.930;2023-04-06T13:48:49;38.90;17.40
13256;DHT22;37913;48.370;10.930;2023-04-06T13:51:16;37.90;17.10
13256;DHT22;37913;48.370;10.930;2023-04-06T13:53:43;38.40;18.10
13256;DHT22;37913;48.370;10.930;2023-04-06T13:56:10;35.70;18.10
13256;DHT22;37913;48.370;10.930;2023-04-06T13:58:37;27.10;21.70
13256;DHT22;37913;48.370;10.930;2023-04-06T14:01:07;30.70;20.90
13256;DHT22;37913;48.370;10.930;2023-04-06T14:03:35;29.00;20.80
13256;DHT22;37913;48.370;10.930;2023-04-06T14:06:10;31.00;21.30
13256;DHT22;37913;48.370;10.930;2023-04-06T14:08:38;33.90;20.40
13256;DHT22;37913;48.370;10.930;2023-04-06T14:11:12;31.70;20.80
13256;DHT22;37913;48.370;10.930;2023-04-06T14:13:40;27.40;21.30
13256;DHT22;37913;48.370;10.930;2023-04-06T14:16:08;29.20;22.20
13256;DHT22;37913;48.370;10.930;2023-04-06T14:18:36;31.90;20.60
13256;DHT22;37913;48.370;10.930;2023-04-06T14:21:04;29.70;21.70
13256;DHT22;37913;48.370;10.930;2023-04-06T14:23:31;31.50;21.10
13256;DHT22;37913;48.370;10.930;2023-04-06T14:26:03;31.90;20.40
13256;DHT22;37913;48.370;10.930;2023-04-06T14:28:31;30.80;20.60
13256;DHT22;37913;48.370;10.930;2023-04-06T14:31:02;25.60;22.50
13256;DHT22;37913;48.370;10.930;2023-04-06T14:33:32;24.80;23.80
13256;DHT22;37913;48.370;10.930;2023-04-06T14:36:02;22.60;25.40
13256;DHT22;37913;48.370;10.930;2023-04-06T14:38:31;22.60;25.80
13256;DHT22;37913;48.370;10.930;2023-04-06T14:40:58;20.90;26.90
13256;DHT22;37913;48.370;10.930;2023-04-06T14:43:25;19.60;27.20
13256;DHT22;37913;48.370;10.930;2023-04-06T14:46:00;18.90;27.20
13256;DHT22;37913;48.370;10.930;2023-04-06T14:48:28;18.20;28.10
13256;DHT22;37913;48.370;10.930;2023-04-06T14:50:57;17.70;29.40
13256;DHT22;37913;48.370;10.930;2023-04-06T14:53:24;17.80;29.60
13256;DHT22;37913;48.370;10.930;2023-04-06T14:55:51;17.70;30.80
13256;DHT22;37913;48.370;10.930;2023-04-06T14:58:18;17.70;29.70
13256;DHT22;37913;48.370;10.930;2023-04-06T15:00:45;17.60;30.40
13256;DHT22;37913;48.370;10.930;2023-04-06T15:03:12;17.20;31.70
13256;DHT22;37913;48.370;10.930;2023-04-06T15:05:40;16.70;32.30
13256;DHT22;37913;48.370;10.930;2023-04-06T15:08:08;16.80;32.10
13256;DHT22;37913;48.370;10.930;2023-04-06T15:10:37;16.50;31.50
13256;DHT22;37913;48.370;10.930;2023-04-06T15:13:04;16.40;31.10
13256;DHT22;37913;48.370;10.930;2023-04-06T15:15:30;16.00;31.30
13256;DHT22;37913;48.370;10.930;2023-04-06T15:17:58;15.60;31.90
13256;DHT22;37913;48.370;10.930;2023-04-06T15:20:27;15.30;32.10
13256;DHT22;37913;48.370;10.930;2023-04-06T15:22:54;15.10;33.20
13256;DHT22;37913;48.370;10.930;2023-04-06T15:25:23;14.80;33.30
13256;DHT22;37913;48.370;10.930;2023-04-06T15:27:49;14.80;33.90